createdAt,value
2019-02-24T00:03:38.721Z,75.90
2019-02-24T00:09:41.033Z,74.90
2019-02-24T00:15:43.342Z,75.70
2019-02-24T00:21:45.726Z,75.80
2019-02-24T00:27:48.196Z,76.20
2019-02-24T00:33:50.585Z,74.40
2019-02-24T00:39:52.873Z,74.50
2019-02-24T00:45:55.035Z,74.60
2019-02-24T00:51:57.465Z,75.10
2019-02-24T00:57:59.824Z,74.70
2019-02-24T01:04:02.085Z,76.10
2019-02-24T01:10:04.728Z,76.40
2019-02-24T01:16:07.105Z,75.60
2019-02-24T01:22:09.309Z,75.50
2019-02-24T01:28:11.714Z,75.40
2019-02-24T01:34:14.169Z,75.70
2019-02-24T01:40:16.617Z,76.40
2019-02-24T01:46:18.809Z,76.90
2019-02-24T01:52:21.138Z,76.80
2019-02-24T01:58:23.329Z,75.60
2019-02-24T02:04:25.680Z,75.30
2019-02-24T02:10:27.884Z,76.30
2019-02-24T02:16:30.202Z,74.60
2019-02-24T02:22:32.639Z,73.90
2019-02-24T02:28:43.593Z,75.10
2019-02-24T02:34:39.160Z,74.50
2019-02-24T02:40:41.535Z,74.70
2019-02-24T02:46:43.757Z,74.50
2019-02-24T02:52:45.962Z,74.50
2019-02-24T02:58:54.305Z,75.20
2019-02-24T03:04:53.192Z,75.90
2019-02-24T03:10:55.509Z,76.30
2019-02-24T03:16:57.800Z,76.60
2019-02-24T03:23:00.180Z,76.00
2019-02-24T03:29:04.345Z,77.10
2019-02-24T03:35:07.737Z,78.50
2019-02-24T03:41:09.916Z,78.50
2019-02-24T03:47:12.093Z,78.90
2019-02-24T03:53:14.550Z,78.30
2019-02-24T03:59:16.784Z,78.30
2019-02-24T04:05:18.981Z,79.20
2019-02-24T04:11:21.166Z,78.50
2019-02-24T04:17:25.496Z,78.80
2019-02-24T04:23:27.670Z,79.60
2019-02-24T04:29:29.839Z,79.40
2019-02-24T04:35:32.018Z,80.20
2019-02-24T04:41:35.039Z,81.00
2019-02-24T04:47:37.455Z,80.80
2019-02-24T04:53:39.592Z,80.70
2019-02-24T04:59:41.774Z,81.70
2019-02-24T05:05:44.176Z,80.80
2019-02-24T05:11:46.767Z,81.20
2019-02-24T05:17:51.091Z,80.90
2019-02-24T05:23:53.310Z,81.00
2019-02-24T05:29:55.466Z,81.60
2019-02-24T05:35:57.648Z,82.70
2019-02-24T05:41:59.868Z,83.70
2019-02-24T05:48:03.364Z,84.30
2019-02-24T05:54:05.535Z,84.60
2019-02-24T06:00:08.283Z,84.70
2019-02-24T06:06:10.600Z,84.90
2019-02-24T06:12:12.823Z,84.80
2019-02-24T06:18:15.096Z,84.20
2019-02-24T06:24:17.478Z,84.30
2019-02-24T06:30:19.724Z,82.90
2019-02-24T06:36:22.042Z,81.80
2019-02-24T06:42:24.323Z,82.40
2019-02-24T06:48:26.642Z,82.20
2019-02-24T06:54:29.255Z,82.50
2019-02-24T07:00:31.676Z,82.00
2019-02-24T07:06:34.096Z,81.30
2019-02-24T07:12:36.468Z,78.70
2019-02-24T07:18:38.811Z,77.80
2019-02-24T07:24:41.040Z,76.10
2019-02-24T07:30:43.369Z,74.70
2019-02-24T07:36:45.591Z,69.90
2019-02-24T07:42:47.997Z,67.70
2019-02-24T07:48:50.339Z,63.40
2019-02-24T07:54:52.600Z,62.00
2019-02-24T08:00:54.884Z,58.10
2019-02-24T08:06:57.495Z,58.50
2019-02-24T08:12:59.834Z,57.90
2019-02-24T08:19:01.997Z,57.80
2019-02-24T08:25:04.267Z,58.30
2019-02-24T08:31:07.515Z,58.40
2019-02-24T08:37:09.744Z,53.20
2019-02-24T08:43:12.930Z,49.00
2019-02-24T08:49:15.281Z,46.00
2019-02-24T08:55:17.543Z,44.50
2019-02-24T09:01:19.914Z,42.00
2019-02-24T09:07:22.169Z,41.70
2019-02-24T09:13:24.344Z,43.50
2019-02-24T09:19:26.573Z,42.80
2019-02-24T09:25:28.872Z,43.10
2019-02-24T09:31:31.099Z,42.20
2019-02-24T09:37:33.379Z,43.80
2019-02-24T09:43:35.711Z,42.60
2019-02-24T09:49:40.031Z,40.80
2019-02-24T09:55:42.309Z,40.70
2019-02-24T10:01:44.559Z,40.30
2019-02-24T10:07:46.923Z,39.50
2019-02-24T10:13:51.154Z,39.70
2019-02-24T10:19:53.264Z,40.60
2019-02-24T10:25:55.412Z,42.10
2019-02-24T10:31:57.585Z,41.90
2019-02-24T10:37:59.748Z,44.30
2019-02-24T10:44:02.067Z,44.90
2019-02-24T10:50:05.912Z,44.20
2019-02-24T10:56:08.456Z,44.00
2019-02-24T11:02:10.848Z,44.70
2019-02-24T11:08:14.273Z,44.90
2019-02-24T11:14:16.598Z,44.70
2019-02-24T11:20:19.016Z,44.00
2019-02-24T11:26:21.203Z,44.30
2019-02-24T11:32:23.390Z,44.00
2019-02-24T11:38:27.664Z,42.10
2019-02-24T11:44:31.290Z,42.20
2019-02-24T11:50:33.490Z,42.80
2019-02-24T11:56:35.768Z,42.50
2019-02-24T12:02:39.089Z,42.80
2019-02-24T12:08:43.681Z,42.20
2019-02-24T12:14:46.987Z,42.60
2019-02-24T12:20:51.284Z,43.50
2019-02-24T12:26:55.477Z,43.70
2019-02-24T12:32:58.708Z,42.70
2019-02-24T12:39:01.043Z,42.70
2019-02-24T12:45:07.152Z,41.40
2019-02-24T12:51:09.491Z,42.80
2019-02-24T12:57:13.851Z,43.40
2019-02-24T13:03:24.080Z,43.70
2019-02-24T13:09:27.790Z,45.20
2019-02-24T13:15:30.101Z,44.80
2019-02-24T13:21:32.896Z,44.60
2019-02-24T13:27:36.133Z,46.20
2019-02-24T13:33:38.647Z,44.50
2019-02-24T13:39:41.049Z,44.50
2019-02-24T13:45:45.815Z,43.50
2019-02-24T13:51:49.331Z,43.60
2019-02-24T13:57:51.451Z,43.80
2019-02-24T14:03:53.567Z,44.10
2019-02-24T14:09:55.905Z,43.30
2019-02-24T14:15:59.483Z,42.40
2019-02-24T14:22:02.825Z,43.80
2019-02-24T14:28:05.133Z,42.40
2019-02-24T14:34:08.514Z,43.30
2019-02-24T14:40:10.862Z,43.70
2019-02-24T14:46:15.990Z,43.60
2019-02-24T14:52:18.617Z,42.20
2019-02-24T14:58:21.971Z,42.50
2019-02-24T15:04:24.462Z,43.90
2019-02-24T15:10:27.887Z,43.50
2019-02-24T15:16:37.225Z,44.20
2019-02-24T15:22:40.358Z,44.50
2019-02-24T15:28:42.722Z,45.70
2019-02-24T15:34:45.054Z,46.60
2019-02-24T15:40:47.990Z,47.20
2019-02-24T15:46:50.611Z,47.10
2019-02-24T15:52:54.400Z,47.10
2019-02-24T15:58:56.748Z,48.10
2019-02-24T16:04:59.992Z,48.30
2019-02-24T16:11:05.090Z,48.80
2019-02-24T16:17:07.275Z,49.20
2019-02-24T16:23:09.569Z,49.30
2019-02-24T16:29:11.956Z,50.70
2019-02-24T16:35:14.173Z,50.40
2019-02-24T16:41:19.336Z,50.90
2019-02-24T16:47:22.731Z,51.90
2019-02-24T16:53:25.107Z,51.30
2019-02-24T16:59:27.660Z,51.90
2019-02-24T17:05:31.287Z,53.80
2019-02-24T17:11:34.816Z,54.70
2019-02-24T17:17:37.036Z,52.50
2019-02-24T17:23:49.549Z,54.80
2019-02-24T17:29:44.573Z,57.00
2019-02-24T17:35:48.931Z,57.60
2019-02-24T17:41:51.121Z,58.50
2019-02-24T17:47:54.367Z,58.10
2019-02-24T17:53:56.781Z,58.50
2019-02-24T17:59:59.059Z,58.70
2019-02-24T18:06:01.381Z,59.70
2019-02-24T18:12:05.873Z,60.30
2019-02-24T18:18:08.173Z,61.30
2019-02-24T18:24:10.801Z,63.30
2019-02-24T18:30:15.774Z,63.60
2019-02-24T18:36:18.363Z,61.10
2019-02-24T18:42:20.735Z,62.50
2019-02-24T18:48:23.103Z,62.10
2019-02-24T18:54:34.342Z,63.10
2019-02-24T19:00:29.551Z,62.20
2019-02-24T19:06:38.911Z,63.30
2019-02-24T19:12:37.926Z,65.30
2019-02-24T19:18:44.746Z,66.60
2019-02-24T19:24:46.775Z,67.00
2019-02-24T19:30:49.293Z,66.70
2019-02-24T19:36:51.663Z,66.60
2019-02-24T19:42:54.531Z,66.50
2019-02-24T19:48:57.047Z,66.90
2019-02-24T19:54:59.316Z,67.00
2019-02-24T20:01:01.585Z,67.20
2019-02-24T20:07:03.991Z,68.60
2019-02-24T20:13:08.351Z,68.80
2019-02-24T20:19:11.389Z,69.40
2019-02-24T20:25:13.639Z,69.00
2019-02-24T20:31:20.390Z,70.00
2019-02-24T20:37:22.875Z,69.80
2019-02-24T20:43:25.842Z,69.80
2019-02-24T20:49:28.262Z,70.20
2019-02-24T20:55:31.451Z,70.30
2019-02-24T21:01:34.051Z,70.10
2019-02-24T21:07:39.534Z,70.10
2019-02-24T21:13:43.813Z,70.20
2019-02-24T21:19:46.115Z,69.20
2019-02-24T21:25:48.502Z,69.00
2019-02-24T21:31:50.745Z,68.90
2019-02-24T21:37:53.025Z,66.60
2019-02-24T21:43:55.348Z,66.90
2019-02-24T21:49:57.646Z,66.90
2019-02-24T21:55:59.900Z,68.20
2019-02-24T22:02:03.342Z,67.50
2019-02-24T22:08:05.582Z,67.60
2019-02-24T22:14:07.970Z,65.50
2019-02-24T22:20:16.478Z,66.60
2019-02-24T22:26:18.767Z,68.30
2019-02-24T22:32:21.081Z,69.50
2019-02-24T22:38:23.310Z,69.90
2019-02-24T22:44:25.682Z,70.00
2019-02-24T22:50:28.157Z,69.40
2019-02-24T22:56:30.415Z,69.00
2019-02-24T23:02:32.672Z,69.20
2019-02-24T23:08:35.125Z,68.30
2019-02-24T23:14:37.336Z,68.00
2019-02-24T23:20:39.768Z,67.70
2019-02-24T23:26:44.163Z,69.70
2019-02-24T23:32:46.384Z,68.50
2019-02-24T23:38:48.803Z,68.30
2019-02-24T23:44:51.027Z,68.60
2019-02-24T23:50:53.335Z,68.30
2019-02-24T23:56:55.972Z,68.20
